createdAt,value
2023-02-16T00:01:27.594Z,5.25
2023-02-16T00:03:58.120Z,6.80
2023-02-16T00:06:29.912Z,4.22
2023-02-16T00:08:59.340Z,5.22
2023-02-16T00:11:54.756Z,5.15
2023-02-16T00:14:27.156Z,4.25
2023-02-16T00:16:59.346Z,5.75
2023-02-16T00:19:35.132Z,4.28
2023-02-16T00:22:06.290Z,3.78
2023-02-16T00:24:36.265Z,5.07
2023-02-16T00:27:15.214Z,4.20
2023-02-16T00:29:45.953Z,13.48
2023-02-16T00:32:15.609Z,10.20
2023-02-16T00:34:45.328Z,7.85
2023-02-16T00:37:16.150Z,5.60
2023-02-16T00:39:46.825Z,4.80
2023-02-16T00:42:26.869Z,5.97
2023-02-16T00:45:00.514Z,4.47
2023-02-16T00:47:42.778Z,5.22
2023-02-16T00:50:33.397Z,5.13
2023-02-16T00:53:03.782Z,5.03
2023-02-16T00:55:36.710Z,5.20
2023-02-16T00:58:15.237Z,4.95
2023-02-16T01:00:54.619Z,5.10
2023-02-16T01:03:29.838Z,4.97
2023-02-16T01:06:17.283Z,4.47
2023-02-16T01:09:04.987Z,5.20
2023-02-16T01:11:34.218Z,3.80
2023-02-16T01:14:03.453Z,4.72
2023-02-16T01:16:42.305Z,6.13
2023-02-16T01:19:14.301Z,5.25
2023-02-16T01:21:43.560Z,4.60
2023-02-16T01:24:12.882Z,5.75
2023-02-16T01:26:49.371Z,4.13
2023-02-16T01:29:23.329Z,4.32
2023-02-16T01:31:52.774Z,4.13
2023-02-16T01:34:21.958Z,4.13
2023-02-16T01:36:51.417Z,4.07
2023-02-16T01:39:22.287Z,4.25
2023-02-16T01:42:16.051Z,4.65
2023-02-16T01:45:00.996Z,4.28
2023-02-16T01:47:52.694Z,3.78
2023-02-16T01:50:38.211Z,3.58
2023-02-16T01:53:36.270Z,3.67
2023-02-16T01:56:29.712Z,4.13
2023-02-16T01:59:09.489Z,3.70
2023-02-16T02:02:05.904Z,4.63
2023-02-16T02:05:10.544Z,4.45
2023-02-16T02:08:13.678Z,3.78
2023-02-16T02:10:57.674Z,4.05
2023-02-16T02:13:57.754Z,4.57
2023-02-16T02:16:29.680Z,4.32
2023-02-16T02:18:59.688Z,4.20
2023-02-16T02:22:31.822Z,3.70
2023-02-16T02:25:21.759Z,3.67
2023-02-16T02:28:10.110Z,5.70
2023-02-16T02:31:11.500Z,3.30
2023-02-16T02:34:06.117Z,4.25
2023-02-16T02:36:47.113Z,3.95
2023-02-16T02:39:47.017Z,3.88
2023-02-16T02:42:49.880Z,3.80
2023-02-16T02:45:29.749Z,3.58
2023-02-16T02:47:58.890Z,4.15
2023-02-16T02:51:13.993Z,3.28
2023-02-16T02:54:23.276Z,3.50
2023-02-16T02:57:26.685Z,3.15
2023-02-16T03:00:21.915Z,5.35
2023-02-16T03:02:58.463Z,3.42
2023-02-16T03:05:31.769Z,3.65
2023-02-16T03:08:16.964Z,4.53
2023-02-16T03:11:17.110Z,7.30
2023-02-16T03:13:58.312Z,2.83
2023-02-16T03:16:48.460Z,3.70
2023-02-16T03:19:38.541Z,4.70
2023-02-16T03:22:25.906Z,3.22
2023-02-16T03:25:13.135Z,3.22
2023-02-16T03:28:02.722Z,4.10
2023-02-16T03:30:32.687Z,3.65
2023-02-16T03:33:02.350Z,3.80
2023-02-16T03:35:32.208Z,3.30
2023-02-16T03:38:01.667Z,3.20
2023-02-16T03:40:35.922Z,5.75
2023-02-16T03:43:09.545Z,4.22
2023-02-16T03:45:44.813Z,3.63
2023-02-16T03:48:14.574Z,4.18
2023-02-16T03:50:45.053Z,3.58
2023-02-16T03:53:14.898Z,2.97
2023-02-16T03:55:49.726Z,2.97
2023-02-16T03:58:23.608Z,3.05
2023-02-16T04:00:54.511Z,3.03
2023-02-16T04:03:23.775Z,3.70
2023-02-16T04:05:53.092Z,5.50
2023-02-16T04:08:22.364Z,3.92
2023-02-16T04:10:51.694Z,4.10
2023-02-16T04:13:21.264Z,4.13
2023-02-16T04:15:50.799Z,4.75
2023-02-16T04:18:20.028Z,4.80
2023-02-16T04:20:49.314Z,5.00
2023-02-16T04:23:18.536Z,4.60
2023-02-16T04:25:48.068Z,3.95
2023-02-16T04:28:17.464Z,3.47
2023-02-16T04:30:47.013Z,4.15
2023-02-16T04:33:16.785Z,3.92
2023-02-16T11:17:19.420Z,7.57
2023-02-16T11:20:22.934Z,8.30
2023-02-16T11:22:52.732Z,7.57
2023-02-16T11:25:28.897Z,8.98
2023-02-16T11:28:10.625Z,10.85
2023-02-16T11:30:44.342Z,10.10
2023-02-16T11:33:30.690Z,8.93
2023-02-16T11:35:59.885Z,9.57
2023-02-16T11:38:39.295Z,10.30
2023-02-16T11:41:09.806Z,10.20
2023-02-16T11:43:43.641Z,11.00
2023-02-16T11:46:20.528Z,12.23
2023-02-16T11:48:50.280Z,12.45
2023-02-16T11:51:35.271Z,11.63
2023-02-16T11:54:08.744Z,12.13
2023-02-16T11:56:38.216Z,11.68
2023-02-16T11:59:21.781Z,12.23
2023-02-16T12:02:20.038Z,12.00
2023-02-16T12:05:17.900Z,12.23
2023-02-16T12:07:47.906Z,14.40
2023-02-16T12:10:58.851Z,12.00
2023-02-16T12:13:42.997Z,12.68
2023-02-16T12:16:42.844Z,11.23
2023-02-16T12:19:37.636Z,12.88
2023-02-16T12:22:36.168Z,12.55
2023-02-16T12:25:37.862Z,12.00
2023-02-16T12:28:39.646Z,12.15
2023-02-16T12:31:28.017Z,13.00
2023-02-16T12:34:21.813Z,12.40
2023-02-16T12:37:23.515Z,12.07
2023-02-16T12:40:28.402Z,11.27
2023-02-16T12:43:18.814Z,12.07
2023-02-16T12:45:50.582Z,11.52
2023-02-16T12:48:43.616Z,12.18
2023-02-16T12:51:22.355Z,11.65
2023-02-16T12:53:54.550Z,12.00
2023-02-16T12:56:34.711Z,13.00
2023-02-16T12:59:27.323Z,12.00
2023-02-16T13:02:01.277Z,12.57
2023-02-16T13:05:02.754Z,11.98
2023-02-16T13:07:48.392Z,11.27
2023-02-16T13:10:32.005Z,11.77
2023-02-16T13:13:19.039Z,11.43
2023-02-16T13:15:56.375Z,11.20
2023-02-16T13:18:39.224Z,10.95
2023-02-16T13:21:25.689Z,11.55
2023-02-16T13:24:00.945Z,11.73
2023-02-16T13:27:09.340Z,11.00
2023-02-16T13:30:07.156Z,11.43
2023-02-16T13:33:38.387Z,11.05
2023-02-16T13:36:39.018Z,10.10
2023-02-16T13:39:41.914Z,10.63
2023-02-16T13:42:26.536Z,11.32
2023-02-16T13:45:06.732Z,9.55
2023-02-16T13:47:43.138Z,9.95
2023-02-16T13:50:25.113Z,10.38
2023-02-16T13:52:59.564Z,10.30
2023-02-16T13:55:38.557Z,10.18
2023-02-16T13:58:29.273Z,11.32
2023-02-16T14:00:58.578Z,9.95
2023-02-16T14:03:38.969Z,12.45
2023-02-16T14:06:29.575Z,10.82
2023-02-16T14:09:18.805Z,10.02
2023-02-16T14:11:58.657Z,10.15
2023-02-16T14:14:37.614Z,11.40
2023-02-16T14:17:24.997Z,11.48
2023-02-16T14:20:15.984Z,12.23
2023-02-16T14:22:52.775Z,12.25
2023-02-16T14:25:24.907Z,12.95
2023-02-16T14:27:57.440Z,12.40
2023-02-16T14:30:50.726Z,12.05
2023-02-16T14:33:40.664Z,12.82
2023-02-16T14:36:27.414Z,13.75
2023-02-16T14:39:00.554Z,12.90
2023-02-16T14:41:39.897Z,12.88
2023-02-16T14:44:09.111Z,13.88
2023-02-16T14:47:06.963Z,13.77
2023-02-16T14:50:18.597Z,12.80
2023-02-16T14:53:05.635Z,14.30
2023-02-16T14:55:47.289Z,13.60
2023-02-16T14:59:13.218Z,12.98
2023-02-16T15:01:47.065Z,13.48
2023-02-16T15:04:34.189Z,13.20
2023-02-16T15:07:08.608Z,13.88
2023-02-16T15:09:44.086Z,15.50
2023-02-16T15:12:23.202Z,14.77
2023-02-16T15:15:03.802Z,15.60
2023-02-16T15:17:51.194Z,14.50
2023-02-16T15:20:35.422Z,15.75
2023-02-16T15:23:18.707Z,15.02
2023-02-16T15:26:01.053Z,14.38
2023-02-16T15:28:40.023Z,15.43
2023-02-16T15:31:24.064Z,15.15
2023-02-16T15:34:01.424Z,14.73
2023-02-16T15:36:40.819Z,13.63
2023-02-16T15:39:37.922Z,13.48
2023-02-16T15:42:28.620Z,12.85
2023-02-16T15:44:58.037Z,12.85
2023-02-16T15:47:28.592Z,12.45
2023-02-16T15:49:57.747Z,13.23
2023-02-16T15:52:39.303Z,13.77
2023-02-16T15:55:11.432Z,13.18
2023-02-16T15:57:42.658Z,12.82
2023-02-16T16:00:21.690Z,12.90
2023-02-16T16:02:57.027Z,13.88
2023-02-16T16:05:41.784Z,13.48
2023-02-16T16:08:18.576Z,13.00
2023-02-16T16:10:49.469Z,14.40
2023-02-16T16:13:27.676Z,14.02
2023-02-16T16:16:02.889Z,14.30
2023-02-16T16:18:51.221Z,12.70
2023-02-16T16:21:30.603Z,15.10
2023-02-16T16:24:09.929Z,12.73
2023-02-16T16:26:59.555Z,12.30
2023-02-16T16:29:42.501Z,12.68
2023-02-16T16:32:24.708Z,12.85
2023-02-16T16:34:53.989Z,12.90
2023-02-16T16:37:38.267Z,13.38
2023-02-16T16:40:38.670Z,12.85
2023-02-16T16:43:17.366Z,13.05
2023-02-16T16:45:50.234Z,12.48
2023-02-16T16:48:37.337Z,13.52
2023-02-16T16:51:22.599Z,12.65
2023-02-16T16:54:04.940Z,12.98
2023-02-16T16:56:40.078Z,11.52
2023-02-16T16:59:10.183Z,12.68
2023-02-16T17:01:39.461Z,12.80
2023-02-16T17:04:08.597Z,11.73
2023-02-16T17:06:37.695Z,12.13
2023-02-16T17:09:06.968Z,13.05
2023-02-16T17:11:40.188Z,12.05
2023-02-16T17:14:19.034Z,12.43
2023-02-16T17:16:54.181Z,12.68
2023-02-16T17:19:25.626Z,10.55
2023-02-16T17:21:54.797Z,12.68
2023-02-16T17:24:24.176Z,12.15
2023-02-16T17:26:53.432Z,11.98
2023-02-16T17:29:23.548Z,11.57
2023-02-16T17:31:52.731Z,12.10
2023-02-16T17:34:21.980Z,11.65
2023-02-16T17:36:51.177Z,12.43
2023-02-16T17:39:20.623Z,11.63
2023-02-16T17:41:51.777Z,12.05
2023-02-16T17:44:20.936Z,12.60
2023-02-16T17:46:50.125Z,12.40
2023-02-16T17:49:19.451Z,13.13
2023-02-16T17:51:48.709Z,11.25
2023-02-16T17:54:17.785Z,11.73
2023-02-16T17:56:48.221Z,12.60
2023-02-16T17:59:17.680Z,12.38
2023-02-16T18:01:47.372Z,11.00
2023-02-16T18:04:16.621Z,11.88
2023-02-16T18:06:45.785Z,12.30
2023-02-16T18:09:21.555Z,11.77
2023-02-16T18:11:50.641Z,11.50
2023-02-16T18:14:19.693Z,12.85
2023-02-16T18:16:53.642Z,13.40
2023-02-16T18:19:22.813Z,12.82
2023-02-16T18:21:51.901Z,12.82
2023-02-16T18:24:21.362Z,12.98
2023-02-16T18:26:50.953Z,12.70
2023-02-16T18:29:20.762Z,12.77
2023-02-16T18:31:50.429Z,12.80
2023-02-16T18:34:19.804Z,12.88
2023-02-16T18:36:48.946Z,12.68
2023-02-16T18:39:17.999Z,13.80
2023-02-16T18:41:47.250Z,13.15
2023-02-16T18:44:19.045Z,13.25
2023-02-16T18:46:48.874Z,13.27
2023-02-16T18:49:17.990Z,11.95
2023-02-16T18:51:47.120Z,13.20
2023-02-16T18:54:16.571Z,13.55
2023-02-16T18:56:45.828Z,12.63
2023-02-16T18:59:15.271Z,14.07
2023-02-16T19:01:46.196Z,13.52
2023-02-16T19:04:15.510Z,13.95
2023-02-16T19:06:44.544Z,13.45
2023-02-16T19:09:13.627Z,13.35
2023-02-16T19:11:42.823Z,14.93
2023-02-16T19:14:12.594Z,14.48
2023-02-16T19:16:42.795Z,14.18
2023-02-16T19:19:12.814Z,14.88
2023-02-16T19:21:45.110Z,14.98
2023-02-16T19:24:14.532Z,14.77
2023-02-16T19:26:43.721Z,13.10
2023-02-16T19:29:13.797Z,14.30
2023-02-16T19:31:43.187Z,13.57
2023-02-16T19:34:13.091Z,14.43
2023-02-16T19:36:42.737Z,14.55
2023-02-16T19:39:13.444Z,14.38
2023-02-16T19:41:47.139Z,14.55
2023-02-16T19:44:16.701Z,14.77
2023-02-16T19:46:45.963Z,14.85
2023-02-16T19:49:16.702Z,15.07
2023-02-16T19:51:48.500Z,14.23
2023-02-16T19:54:17.789Z,14.73
2023-02-16T19:56:47.036Z,14.70
2023-02-16T19:59:17.012Z,14.95
2023-02-16T20:01:46.226Z,14.43
2023-02-16T20:04:16.985Z,14.27
2023-02-16T20:06:46.768Z,14.23
2023-02-16T20:09:18.603Z,13.73
2023-02-16T20:11:47.908Z,15.25
2023-02-16T20:14:17.164Z,14.27
2023-02-16T20:16:46.615Z,15.30
2023-02-16T20:19:16.589Z,14.60
2023-02-16T20:21:47.309Z,13.77
2023-02-16T20:24:17.511Z,14.45
2023-02-16T20:26:50.069Z,16.48
2023-02-16T20:29:21.587Z,23.50
2023-02-16T20:31:57.982Z,29.90
2023-02-16T20:34:28.765Z,27.70
2023-02-16T20:36:57.989Z,24.73
2023-02-16T20:39:27.789Z,22.45
2023-02-16T20:41:59.159Z,20.95
2023-02-16T20:44:28.933Z,20.13
2023-02-16T20:46:58.209Z,19.13
2023-02-16T20:49:27.420Z,18.45
2023-02-16T20:51:56.713Z,17.85
2023-02-16T20:54:26.012Z,17.33
2023-02-16T20:56:55.289Z,17.10
2023-02-16T20:59:24.456Z,15.57
2023-02-16T21:01:53.703Z,14.13
2023-02-16T21:04:23.495Z,13.70
2023-02-16T21:06:52.696Z,14.15
2023-02-16T21:09:21.894Z,15.77
2023-02-16T21:11:51.063Z,14.00
2023-02-16T21:14:20.262Z,13.25
2023-02-16T21:16:49.535Z,14.90
2023-02-16T21:19:23.336Z,14.48
2023-02-16T21:21:53.848Z,13.77
2023-02-16T21:24:23.129Z,13.85
2023-02-16T21:26:52.371Z,12.50
2023-02-16T21:29:21.679Z,13.60
2023-02-16T21:31:50.944Z,14.20
2023-02-16T21:34:20.260Z,14.52
2023-02-16T21:36:49.512Z,14.38
2023-02-16T21:39:18.962Z,14.32
2023-02-16T21:41:49.971Z,13.30
2023-02-16T21:44:19.286Z,13.43
2023-02-16T21:46:49.411Z,13.95
2023-02-16T21:49:21.341Z,13.85
2023-02-16T21:51:51.168Z,13.48
2023-02-16T21:54:41.037Z,12.68
2023-02-16T21:57:10.249Z,12.98
2023-02-16T21:59:39.602Z,12.02
2023-02-16T22:02:10.796Z,11.70
2023-02-16T22:04:40.028Z,12.10
2023-02-16T22:07:09.242Z,13.18
2023-02-16T22:09:38.447Z,12.27
2023-02-16T22:12:07.909Z,12.55
2023-02-16T22:14:37.086Z,13.07
2023-02-16T22:17:08.682Z,12.90
2023-02-16T22:19:38.771Z,13.35
2023-02-16T22:22:07.948Z,16.48
2023-02-16T22:24:37.120Z,19.95
2023-02-16T22:27:06.337Z,22.23
2023-02-16T22:29:35.661Z,23.42
2023-02-16T22:32:04.946Z,20.98
2023-02-16T22:34:34.215Z,21.98
2023-02-16T22:37:03.389Z,19.67
2023-02-16T22:39:32.786Z,19.48
2023-02-16T22:42:02.076Z,17.95
2023-02-16T22:44:31.596Z,17.83
2023-02-16T22:47:00.778Z,17.08
2023-02-16T22:49:30.125Z,16.95
2023-02-16T22:51:59.372Z,16.70
2023-02-16T22:54:28.608Z,17.30
2023-02-16T22:56:57.860Z,16.05
2023-02-16T22:59:27.268Z,15.75
2023-02-16T23:01:56.505Z,16.30
2023-02-16T23:04:26.192Z,16.20
2023-02-16T23:06:55.559Z,17.00
2023-02-16T23:09:24.780Z,15.43
2023-02-16T23:11:54.031Z,16.75
2023-02-16T23:14:24.282Z,15.90
2023-02-16T23:16:58.531Z,15.32
2023-02-16T23:19:28.857Z,16.58
2023-02-16T23:21:58.036Z,14.65
2023-02-16T23:24:27.576Z,17.60
2023-02-16T23:26:57.314Z,17.35
2023-02-16T23:29:27.911Z,16.25
2023-02-16T23:31:57.240Z,16.77
2023-02-16T23:34:26.414Z,16.85
2023-02-16T23:36:55.698Z,15.25
2023-02-16T23:39:24.916Z,16.40
2023-02-16T23:41:54.187Z,16.95
2023-02-16T23:44:23.437Z,17.45
2023-02-16T23:46:52.631Z,18.05
2023-02-16T23:49:21.846Z,17.40
2023-02-16T23:51:51.023Z,18.15
2023-02-16T23:54:20.207Z,18.17
2023-02-16T23:56:50.702Z,17.50
2023-02-16T23:59:21.681Z,18.05
